createdAt,value
2018-09-10T00:00:11.614Z,3.80
2018-09-10T00:02:39.642Z,7.10
2018-09-10T00:05:08.546Z,3.43
2018-09-10T00:07:36.555Z,3.10
2018-09-10T00:10:04.902Z,2.97
2018-09-10T00:12:32.996Z,3.17
2018-09-10T00:15:01.001Z,3.00
2018-09-10T00:17:29.090Z,3.20
2018-09-10T00:19:57.028Z,3.03
2018-09-10T00:22:25.094Z,3.00
2018-09-10T00:24:53.084Z,3.53
2018-09-10T00:27:21.166Z,3.40
2018-09-10T00:29:50.569Z,9.10
2018-09-10T00:32:18.560Z,4.33
2018-09-10T00:34:46.492Z,3.30
2018-09-10T00:37:14.477Z,3.20
2018-09-10T00:39:42.525Z,3.03
2018-09-10T00:42:10.509Z,3.20
2018-09-10T00:44:38.605Z,3.20
2018-09-10T00:47:06.611Z,4.97
2018-09-10T00:49:34.779Z,3.20
2018-09-10T00:52:02.726Z,2.90
2018-09-10T00:54:30.688Z,3.17
2018-09-10T00:56:58.714Z,3.03
2018-09-10T00:59:26.722Z,2.90
2018-09-10T01:01:54.982Z,3.27
2018-09-10T01:04:22.877Z,3.37
2018-09-10T01:06:51.148Z,2.83
2018-09-10T01:09:19.087Z,3.27
2018-09-10T01:11:47.532Z,3.20
2018-09-10T01:14:15.413Z,3.30
2018-09-10T01:16:43.403Z,3.40
2018-09-10T01:19:11.479Z,3.10
2018-09-10T01:21:39.505Z,2.90
2018-09-10T01:24:07.557Z,3.03
2018-09-10T01:26:35.640Z,2.93
2018-09-10T01:29:03.648Z,3.17
2018-09-10T01:31:31.739Z,3.20
2018-09-10T01:34:05.275Z,3.30
2018-09-10T01:36:33.317Z,4.17
2018-09-10T01:39:01.316Z,3.10
2018-09-10T01:41:29.373Z,3.73
2018-09-10T01:43:57.460Z,3.33
2018-09-10T01:46:25.628Z,2.80
2018-09-10T01:48:53.534Z,3.13
2018-09-10T01:51:21.686Z,3.13
2018-09-10T01:53:49.635Z,3.10
2018-09-10T01:56:17.606Z,3.10
2018-09-10T01:58:45.838Z,3.30
2018-09-10T02:01:13.982Z,3.20
2018-09-10T02:03:41.957Z,2.97
2018-09-10T02:06:09.994Z,3.80
2018-09-10T02:08:37.942Z,3.00
2018-09-10T02:11:06.209Z,3.80
2018-09-10T02:13:34.149Z,3.27
2018-09-10T02:16:02.149Z,2.97
2018-09-10T02:18:30.169Z,4.47
2018-09-10T02:20:58.154Z,3.10
2018-09-10T02:23:26.179Z,3.60
2018-09-10T02:25:54.252Z,3.20
2018-09-10T02:28:22.159Z,3.10
2018-09-10T02:30:50.600Z,2.90
2018-09-10T02:33:18.900Z,3.00
2018-09-10T02:35:47.355Z,3.23
2018-09-10T02:38:15.314Z,2.90
2018-09-10T02:40:43.456Z,3.33
2018-09-10T02:43:11.520Z,3.30
2018-09-10T02:45:39.511Z,2.90
2018-09-10T02:48:07.501Z,3.23
2018-09-10T02:50:35.486Z,3.20
2018-09-10T02:53:03.508Z,3.20
2018-09-10T02:55:31.440Z,3.20
2018-09-10T02:57:59.427Z,3.37
2018-09-10T03:00:27.340Z,4.13
2018-09-10T03:02:55.330Z,3.40
2018-09-10T03:05:23.532Z,3.77
2018-09-10T03:07:52.037Z,3.17
2018-09-10T03:10:21.860Z,3.63
2018-09-10T03:12:50.326Z,4.27
2018-09-10T03:15:18.397Z,3.40
2018-09-10T03:17:46.480Z,4.40
2018-09-10T03:20:14.473Z,3.77
2018-09-10T03:22:42.485Z,5.03
2018-09-10T03:25:10.523Z,3.43
2018-09-10T03:27:38.713Z,3.60
2018-09-10T03:30:06.692Z,3.80
2018-09-10T03:32:34.699Z,3.10
2018-09-10T03:35:02.754Z,3.37
2018-09-10T03:37:30.830Z,3.00
2018-09-10T03:39:58.789Z,2.80
2018-09-10T03:42:26.698Z,3.43
2018-09-10T03:44:54.597Z,3.03
2018-09-10T03:47:22.627Z,3.10
2018-09-10T03:49:50.641Z,3.30
2018-09-10T03:52:18.597Z,3.10
2018-09-10T03:54:46.582Z,3.50
2018-09-10T03:57:14.619Z,3.00
2018-09-10T03:59:42.682Z,2.90
2018-09-10T04:02:10.915Z,3.27
2018-09-10T04:04:38.914Z,3.27
2018-09-10T04:07:06.970Z,3.40
2018-09-10T04:09:35.035Z,3.27
2018-09-10T04:12:03.017Z,3.30
2018-09-10T04:14:31.042Z,2.83
2018-09-10T04:16:59.203Z,3.30
2018-09-10T04:19:27.253Z,3.00
2018-09-10T04:21:55.201Z,3.60
2018-09-10T04:24:23.199Z,3.60
2018-09-10T04:26:51.191Z,3.23
2018-09-10T04:29:19.239Z,3.40
2018-09-10T04:31:47.204Z,3.47
2018-09-10T04:34:15.342Z,3.50
2018-09-10T04:36:43.249Z,2.93
2018-09-10T04:39:11.965Z,5.77
2018-09-10T04:41:42.229Z,3.10
2018-09-10T04:44:10.198Z,3.33
2018-09-10T04:46:38.894Z,3.53
2018-09-10T04:49:08.008Z,3.70
2018-09-10T04:51:36.066Z,3.23
2018-09-10T04:54:04.528Z,3.63
2018-09-10T04:56:44.741Z,3.20
2018-09-10T04:59:13.057Z,3.77
2018-09-10T05:01:41.012Z,3.20
2018-09-10T05:04:08.914Z,3.20
2018-09-10T05:06:36.881Z,4.73
2018-09-10T05:09:06.924Z,3.60
2018-09-10T05:11:34.888Z,9.17
2018-09-10T05:14:02.907Z,10.20
2018-09-10T05:16:30.827Z,6.50
2018-09-10T05:18:58.884Z,4.00
2018-09-10T05:21:26.869Z,12.27
2018-09-10T05:23:54.785Z,11.73
2018-09-10T05:26:22.773Z,5.13
2018-09-10T05:28:51.276Z,4.17
2018-09-10T05:31:19.188Z,3.60
2018-09-10T05:33:47.275Z,4.07
2018-09-10T05:36:15.628Z,4.30
2018-09-10T05:38:43.636Z,4.30
2018-09-10T05:41:11.522Z,4.50
2018-09-10T05:43:39.527Z,4.50
2018-09-10T05:46:07.560Z,3.73
2018-09-10T05:48:35.627Z,4.23
2018-09-10T05:51:03.681Z,3.60
2018-09-10T05:53:31.667Z,3.70
2018-09-10T05:55:59.604Z,3.73
2018-09-10T05:58:27.652Z,3.37
2018-09-10T06:00:55.663Z,4.60
2018-09-10T06:03:23.580Z,3.53
2018-09-10T06:05:51.501Z,5.10
2018-09-10T06:08:19.530Z,3.60
2018-09-10T06:10:48.025Z,3.70
2018-09-10T06:13:16.018Z,3.27
2018-09-10T06:15:43.953Z,3.50
2018-09-10T06:18:11.998Z,4.17
2018-09-10T06:20:39.945Z,6.87
2018-09-10T06:23:07.902Z,5.53
2018-09-10T06:25:35.825Z,3.53
2018-09-10T06:28:03.734Z,3.30
2018-09-10T06:30:31.769Z,4.57
2018-09-10T06:32:59.589Z,3.60
2018-09-10T06:35:27.599Z,4.47
2018-09-10T06:37:55.661Z,3.37
2018-09-10T06:40:23.636Z,3.70
2018-09-10T06:42:51.621Z,3.70
2018-09-10T06:45:19.804Z,3.10
2018-09-10T06:47:48.146Z,3.30
2018-09-10T06:50:16.405Z,3.43
2018-09-10T06:52:44.426Z,3.40
2018-09-10T06:55:13.682Z,3.70
2018-09-10T06:57:41.773Z,3.37
2018-09-10T07:00:10.034Z,3.27
2018-09-10T07:02:38.120Z,3.40
2018-09-10T07:05:06.231Z,4.10
2018-09-10T07:07:34.335Z,3.77
2018-09-10T07:10:02.504Z,3.57
2018-09-10T07:12:30.700Z,3.10
2018-09-10T07:14:58.838Z,3.00
2018-09-10T07:17:26.839Z,3.77
2018-09-10T07:19:54.952Z,3.00
2018-09-10T07:22:23.124Z,5.40
2018-09-10T07:24:51.411Z,3.30
2018-09-10T07:27:19.437Z,3.20
2018-09-10T07:29:47.339Z,3.80
2018-09-10T07:32:15.377Z,4.13
2018-09-10T07:34:43.639Z,3.90
2018-09-10T07:37:11.605Z,3.30
2018-09-10T07:39:39.705Z,3.63
2018-09-10T07:42:07.633Z,2.87
2018-09-10T07:44:35.891Z,3.13
2018-09-10T07:47:03.993Z,3.80
2018-09-10T07:49:32.054Z,3.47
2018-09-10T07:51:59.971Z,2.90
2018-09-10T07:54:28.054Z,3.17
2018-09-10T07:56:55.977Z,2.73
2018-09-10T07:59:23.917Z,3.10
2018-09-10T08:01:51.851Z,3.10
2018-09-10T08:04:19.800Z,3.33
2018-09-10T08:06:47.802Z,4.13
2018-09-10T08:09:15.914Z,2.90
2018-09-10T08:11:43.797Z,6.30
2018-09-10T08:14:11.721Z,4.67
2018-09-10T08:16:39.741Z,4.17
2018-09-10T08:19:07.625Z,3.30
2018-09-10T08:21:35.449Z,2.90
2018-09-10T08:24:03.442Z,4.67
2018-09-10T08:26:31.300Z,4.47
2018-09-10T08:28:59.179Z,3.50
2018-09-10T08:31:27.369Z,2.70
2018-09-10T08:33:55.621Z,2.62
2018-09-10T08:36:23.629Z,3.10
2018-09-10T08:38:51.526Z,3.20
2018-09-10T08:41:19.483Z,3.00
2018-09-10T08:43:47.524Z,3.47
2018-09-10T08:46:15.633Z,2.80
2018-09-10T08:48:44.421Z,3.30
2018-09-10T08:51:12.647Z,2.90
2018-09-10T08:53:40.579Z,2.60
2018-09-10T08:56:08.883Z,2.10
2018-09-10T08:58:36.734Z,3.43
2018-09-10T09:01:04.732Z,3.17
2018-09-10T09:03:32.705Z,3.80
2018-09-10T09:06:00.820Z,4.43
2018-09-10T09:08:28.774Z,2.63
2018-09-10T09:10:56.742Z,3.80
2018-09-10T09:13:24.768Z,4.77
2018-09-10T09:15:52.798Z,2.90
2018-09-10T09:18:20.883Z,1.97
2018-09-10T09:20:48.889Z,2.67
2018-09-10T09:23:17.085Z,3.70
2018-09-10T09:25:45.146Z,2.70
2018-09-10T09:28:13.152Z,2.77
2018-09-10T09:30:41.269Z,3.77
2018-09-10T09:33:09.312Z,3.47
2018-09-10T09:35:42.833Z,2.00
2018-09-10T09:38:16.413Z,3.60
2018-09-10T09:40:50.140Z,4.27
2018-09-10T09:43:23.710Z,2.87
2018-09-10T09:45:57.394Z,1.90
2018-09-10T09:48:25.408Z,4.10
2018-09-10T09:50:53.581Z,2.30
2018-09-10T09:53:21.694Z,2.17
2018-09-10T09:55:49.785Z,2.30
2018-09-10T09:58:17.881Z,2.50
2018-09-10T10:00:53.109Z,2.43
2018-09-10T10:03:26.762Z,2.60
2018-09-10T10:05:54.886Z,1.47
2018-09-10T10:08:22.948Z,1.60
2018-09-10T10:10:50.987Z,1.83
2018-09-10T10:13:18.990Z,1.73
2018-09-10T10:15:47.088Z,1.53
2018-09-10T10:18:15.057Z,2.20
2018-09-10T10:20:43.139Z,1.97
2018-09-10T10:23:11.149Z,1.90
2018-09-10T10:25:39.358Z,2.50
2018-09-10T10:28:07.442Z,2.37
2018-09-10T10:30:35.421Z,1.70
2018-09-10T10:33:03.492Z,1.67
2018-09-10T10:35:31.566Z,1.90
2018-09-10T10:37:59.772Z,2.37
2018-09-10T10:40:27.735Z,2.20
2018-09-10T10:42:55.818Z,1.40
2018-09-10T10:45:24.023Z,2.17
2018-09-10T10:47:52.166Z,2.57
2018-09-10T10:50:20.323Z,4.10
2018-09-10T10:52:48.379Z,3.50
2018-09-10T10:55:16.512Z,1.60
2018-09-10T10:57:44.533Z,1.77
2018-09-10T11:00:12.612Z,1.97
2018-09-10T11:02:40.701Z,2.50
2018-09-10T11:05:08.835Z,1.60
2018-09-10T11:07:36.961Z,1.90
2018-09-10T11:10:05.672Z,3.10
2018-09-10T11:12:33.766Z,2.63
2018-09-10T11:15:01.856Z,1.70
2018-09-10T11:17:30.165Z,1.97
2018-09-10T11:19:58.539Z,2.33
2018-09-10T11:22:26.805Z,1.93
2018-09-10T11:24:54.868Z,1.93
2018-09-10T11:27:23.033Z,1.20
2018-09-10T11:29:51.387Z,1.83
2018-09-10T11:32:19.696Z,1.73
2018-09-10T11:34:47.985Z,1.97
2018-09-10T11:37:16.249Z,1.30
2018-09-10T11:39:44.385Z,1.77
2018-09-10T11:42:12.474Z,1.60
2018-09-10T11:44:40.495Z,1.60
2018-09-10T11:47:08.596Z,1.40
2018-09-10T11:49:36.676Z,1.70
2018-09-10T11:52:04.962Z,1.80
2018-09-10T11:54:32.994Z,1.70
2018-09-10T11:57:01.084Z,1.47
2018-09-10T11:59:29.231Z,1.70
2018-09-10T12:01:57.345Z,1.30
2018-09-10T12:04:25.509Z,2.20
2018-09-10T12:06:53.527Z,1.80
2018-09-10T12:09:21.503Z,1.60
2018-09-10T12:11:49.584Z,2.40
2018-09-10T12:14:18.504Z,1.60
2018-09-10T12:16:46.797Z,1.90
2018-09-10T12:19:14.731Z,2.63
2018-09-10T12:21:42.733Z,2.33
2018-09-10T12:24:10.603Z,2.10
2018-09-10T12:26:38.645Z,3.00
2018-09-10T12:29:06.541Z,2.00
2018-09-10T12:31:34.586Z,4.30
2018-09-10T12:34:02.820Z,2.30
2018-09-10T12:36:47.663Z,3.00
2018-09-10T12:39:15.832Z,3.70
2018-09-10T12:41:43.986Z,2.57
2018-09-10T12:44:12.451Z,2.80
2018-09-10T12:46:40.919Z,2.60
2018-09-10T12:49:09.022Z,3.10
2018-09-10T12:51:37.286Z,2.43
2018-09-10T12:54:05.501Z,2.27
2018-09-10T12:56:33.707Z,2.87
2018-09-10T12:59:01.963Z,4.23
2018-09-10T13:01:30.160Z,2.10
2018-09-10T13:03:58.355Z,2.67
2018-09-10T13:06:26.702Z,2.20
2018-09-10T13:08:54.793Z,2.20
2018-09-10T13:11:23.260Z,2.57
2018-09-10T13:13:51.374Z,2.73
2018-09-10T13:16:19.655Z,1.97
2018-09-10T13:21:26.495Z,2.00
2018-09-10T13:23:54.389Z,2.70
2018-09-10T13:26:22.654Z,2.70
2018-09-10T13:28:50.596Z,2.67
2018-09-10T13:31:18.538Z,3.27
2018-09-10T13:33:46.460Z,2.10
2018-09-10T13:36:14.232Z,2.47
2018-09-10T13:38:42.101Z,2.20
2018-09-10T13:41:09.994Z,3.20
2018-09-10T13:43:37.779Z,2.50
2018-09-10T13:46:05.816Z,2.47
2018-09-10T13:48:33.594Z,2.63
2018-09-10T13:51:01.685Z,2.37
2018-09-10T13:53:29.961Z,2.37
2018-09-10T13:55:58.113Z,3.80
2018-09-10T13:58:26.447Z,2.40
2018-09-10T14:00:54.888Z,2.60
2018-09-10T14:03:23.148Z,2.30
2018-09-10T14:05:51.221Z,2.00
2018-09-10T14:08:20.015Z,2.70
2018-09-10T14:10:48.286Z,2.37
2018-09-10T14:13:16.313Z,2.57
2018-09-10T14:15:44.442Z,2.30
2018-09-10T14:18:12.681Z,2.00
2018-09-10T14:20:40.791Z,2.17
2018-09-10T14:23:08.918Z,2.40
2018-09-10T14:25:37.455Z,2.33
2018-09-10T14:28:05.557Z,2.37
2018-09-10T14:30:33.714Z,2.57
2018-09-10T14:33:02.036Z,2.77
2018-09-10T14:35:30.143Z,2.27
2018-09-10T14:37:58.315Z,3.00
2018-09-10T14:40:26.483Z,2.80
2018-09-10T14:42:54.747Z,2.47
2018-09-10T14:45:22.928Z,2.67
2018-09-10T14:47:51.481Z,2.47
2018-09-10T14:50:19.773Z,3.13
2018-09-10T14:52:47.867Z,2.50
2018-09-10T14:55:15.951Z,2.80
2018-09-10T14:57:44.042Z,2.43
2018-09-10T15:00:17.742Z,2.70
2018-09-10T15:02:45.918Z,2.90
2018-09-10T15:05:13.967Z,2.60
2018-09-10T15:07:42.479Z,2.50
2018-09-10T15:10:10.514Z,2.40
2018-09-10T15:12:38.637Z,2.53
2018-09-10T15:15:06.884Z,2.80
2018-09-10T15:17:35.103Z,2.40
2018-09-10T15:20:03.443Z,2.87
2018-09-10T15:22:31.534Z,2.20
2018-09-10T15:24:59.543Z,2.50
2018-09-10T15:27:27.602Z,2.33
2018-09-10T15:29:55.926Z,2.23
2018-09-10T15:32:24.469Z,2.50
2018-09-10T15:34:52.645Z,2.53
2018-09-10T15:37:20.708Z,2.47
2018-09-10T15:39:48.913Z,2.33
2018-09-10T15:42:17.207Z,2.30
2018-09-10T15:44:45.226Z,2.20
2018-09-10T15:47:13.352Z,2.40
2018-09-10T15:49:41.857Z,2.53
2018-09-10T15:52:10.247Z,2.60
2018-09-10T15:54:38.411Z,2.30
2018-09-10T15:57:06.455Z,2.47
2018-09-10T15:59:34.821Z,2.77
2018-09-10T16:02:02.878Z,2.40
2018-09-10T16:04:31.242Z,2.80
2018-09-10T16:06:59.321Z,2.70
2018-09-10T16:09:27.448Z,2.50
2018-09-10T16:11:55.763Z,2.47
2018-09-10T16:14:23.990Z,2.60
2018-09-10T16:16:52.552Z,2.33
2018-09-10T16:19:20.883Z,2.67
2018-09-10T16:21:48.938Z,2.43
2018-09-10T16:24:16.965Z,2.50
2018-09-10T16:26:45.057Z,2.70
2018-09-10T16:29:13.418Z,2.10
2018-09-10T16:31:41.772Z,2.43
2018-09-10T16:34:10.652Z,2.30
2018-09-10T16:36:39.357Z,2.40
2018-09-10T16:39:09.523Z,2.30
2018-09-10T16:41:38.408Z,2.23
2018-09-10T16:44:06.755Z,2.40
2018-09-10T16:46:35.093Z,2.20
2018-09-10T16:51:43.528Z,2.20
2018-09-10T16:54:11.741Z,2.53
2018-09-10T16:56:40.536Z,2.60
2018-09-10T16:59:09.232Z,2.23
2018-09-10T17:01:37.510Z,3.20
2018-09-10T17:04:06.011Z,3.23
2018-09-10T17:06:33.885Z,3.50
2018-09-10T17:09:01.710Z,3.00
2018-09-10T17:11:30.054Z,3.00
2018-09-10T17:13:58.178Z,3.10
2018-09-10T17:16:26.206Z,3.23
2018-09-10T17:18:54.185Z,3.20
2018-09-10T17:21:22.500Z,3.00
2018-09-10T17:23:51.012Z,2.87
2018-09-10T17:26:19.748Z,2.83
2018-09-10T17:28:47.959Z,2.80
2018-09-10T17:31:16.067Z,2.90
2018-09-10T17:33:44.162Z,2.90
2018-09-10T17:36:12.076Z,3.00
2018-09-10T17:38:40.063Z,3.63
2018-09-10T17:41:08.484Z,3.57
2018-09-10T17:43:36.299Z,3.77
2018-09-10T17:46:04.252Z,3.53
2018-09-10T17:48:32.053Z,3.50
2018-09-10T17:50:59.910Z,3.53
2018-09-10T17:53:27.712Z,3.33
2018-09-10T17:55:55.527Z,3.07
2018-09-10T17:58:23.343Z,3.50
2018-09-10T18:00:51.243Z,3.40
2018-09-10T18:03:19.265Z,3.40
2018-09-10T18:05:48.532Z,3.40
2018-09-10T18:08:16.458Z,3.13
2018-09-10T18:10:44.365Z,3.10
2018-09-10T18:13:12.244Z,3.10
2018-09-10T18:15:40.469Z,3.00
2018-09-10T18:18:08.307Z,3.33
2018-09-10T18:20:36.144Z,3.90
2018-09-10T18:23:03.900Z,3.73
2018-09-10T18:25:31.839Z,3.20
2018-09-10T18:27:59.790Z,3.60
2018-09-10T18:30:27.924Z,3.33
2018-09-10T18:32:56.149Z,3.57
2018-09-10T18:35:24.308Z,3.40
2018-09-10T18:37:52.421Z,3.73
2018-09-10T18:40:20.844Z,3.43
2018-09-10T18:42:49.401Z,3.57
2018-09-10T18:45:18.325Z,3.73
2018-09-10T18:47:46.921Z,3.97
2018-09-10T18:50:14.984Z,4.33
2018-09-10T18:52:43.590Z,3.87
2018-09-10T18:55:12.143Z,4.83
2018-09-10T18:57:40.156Z,4.47
2018-09-10T19:00:08.755Z,3.90
2018-09-10T19:02:37.262Z,4.53
2018-09-10T19:05:06.350Z,5.37
2018-09-10T19:07:34.514Z,4.43
2018-09-10T19:10:03.706Z,4.60
2018-09-10T19:12:32.455Z,4.37
2018-09-10T19:15:01.371Z,4.50
2018-09-10T19:17:29.921Z,4.60
2018-09-10T19:19:58.166Z,4.40
2018-09-10T19:22:27.033Z,4.70
2018-09-10T19:24:55.401Z,3.80
2018-09-10T19:27:23.522Z,3.47
2018-09-10T19:29:51.886Z,3.37
2018-09-10T19:32:20.523Z,3.40
2018-09-10T19:34:48.761Z,3.20
2018-09-10T19:37:17.001Z,3.40
2018-09-10T19:39:46.577Z,4.53
2018-09-10T19:42:14.936Z,3.53
2018-09-10T19:44:43.510Z,3.40
2018-09-10T19:47:12.210Z,5.13
2018-09-10T19:49:40.705Z,21.00
2018-09-10T19:52:09.001Z,15.50
2018-09-10T19:54:37.326Z,6.97
2018-09-10T19:57:05.653Z,10.10
2018-09-10T20:02:12.762Z,16.23
2018-09-10T20:04:41.732Z,9.90
2018-09-10T20:07:10.623Z,28.63
2018-09-10T20:09:38.807Z,45.43
2018-09-10T20:12:07.231Z,9.83
2018-09-10T20:14:35.286Z,26.63
2018-09-10T20:17:03.346Z,12.37
2018-09-10T20:19:31.496Z,10.33
2018-09-10T20:21:59.465Z,8.67
2018-09-10T20:24:27.573Z,14.17
2018-09-10T20:26:55.608Z,36.67
2018-09-10T20:29:23.492Z,11.80
2018-09-10T20:31:51.646Z,8.03
2018-09-10T20:34:19.499Z,9.53
2018-09-10T20:36:47.254Z,9.77
2018-09-10T20:39:15.019Z,6.67
2018-09-10T20:41:42.910Z,14.80
2018-09-10T20:44:10.903Z,14.17
2018-09-10T20:46:39.134Z,9.43
2018-09-10T20:49:09.360Z,9.53
2018-09-10T20:51:37.342Z,15.97
2018-09-10T20:54:05.162Z,5.27
2018-09-10T20:56:32.985Z,6.67
2018-09-10T20:59:00.783Z,25.43
2018-09-10T21:01:28.559Z,9.10
2018-09-10T21:03:56.475Z,6.90
2018-09-10T21:06:24.389Z,17.03
2018-09-10T21:08:52.198Z,6.23
2018-09-10T21:11:21.093Z,12.23
2018-09-10T21:13:48.813Z,6.00
2018-09-10T21:16:16.602Z,7.90
2018-09-10T21:18:44.400Z,6.03
2018-09-10T21:21:12.261Z,18.27
2018-09-10T21:23:39.966Z,9.33
2018-09-10T21:26:07.723Z,11.23
2018-09-10T21:28:35.504Z,7.37
2018-09-10T21:31:03.180Z,6.73
2018-09-10T21:33:33.072Z,8.93
2018-09-10T21:36:00.778Z,9.20
2018-09-10T21:38:28.513Z,4.50
2018-09-10T21:40:56.501Z,6.00
2018-09-10T21:43:24.222Z,4.17
2018-09-10T21:45:52.205Z,3.70
2018-09-10T21:48:20.150Z,5.40
2018-09-10T21:50:47.853Z,3.33
2018-09-10T21:53:15.563Z,3.03
2018-09-10T21:55:43.336Z,3.50
2018-09-10T21:58:11.049Z,3.83
2018-09-10T22:00:44.387Z,5.00
2018-09-10T22:03:12.075Z,6.03
2018-09-10T22:05:39.778Z,5.00
2018-09-10T22:08:07.805Z,4.00
2018-09-10T22:10:35.950Z,3.63
2018-09-10T22:13:03.571Z,3.27
2018-09-10T22:15:31.233Z,3.53
2018-09-10T22:17:59.017Z,3.40
2018-09-10T22:20:26.653Z,3.77
2018-09-10T22:22:54.673Z,3.27
2018-09-10T22:25:22.406Z,3.30
2018-09-10T22:27:50.719Z,3.40
2018-09-10T22:30:19.141Z,3.50
2018-09-10T22:32:47.614Z,3.50
2018-09-10T22:35:15.305Z,3.40
2018-09-10T22:37:43.244Z,3.60
2018-09-10T22:40:10.941Z,3.72
2018-09-10T22:42:38.656Z,3.80
2018-09-10T22:45:06.459Z,3.98
2018-09-10T22:47:34.085Z,3.67
2018-09-10T22:50:01.762Z,3.52
2018-09-10T22:52:29.453Z,3.40
2018-09-10T22:54:57.276Z,3.13
2018-09-10T22:57:24.874Z,3.80
2018-09-10T22:59:52.538Z,4.20
2018-09-10T23:02:20.158Z,4.10
2018-09-10T23:04:47.784Z,4.00
2018-09-10T23:07:15.468Z,3.97
2018-09-10T23:09:43.081Z,3.60
2018-09-10T23:12:10.704Z,3.83
2018-09-10T23:14:38.328Z,3.73
2018-09-10T23:17:05.967Z,3.90
2018-09-10T23:19:33.824Z,3.83
2018-09-10T23:22:01.652Z,3.90
2018-09-10T23:24:29.284Z,3.67
2018-09-10T23:26:56.963Z,4.90
2018-09-10T23:29:24.875Z,3.93
2018-09-10T23:31:52.894Z,4.43
2018-09-10T23:34:20.930Z,4.10
2018-09-10T23:36:48.948Z,4.43
2018-09-10T23:39:16.895Z,3.73
2018-09-10T23:41:44.924Z,3.53
2018-09-10T23:44:12.912Z,3.70
2018-09-10T23:46:40.746Z,3.50
2018-09-10T23:49:09.063Z,3.67
2018-09-10T23:51:37.106Z,3.50
2018-09-10T23:54:05.082Z,3.35
2018-09-10T23:56:33.018Z,4.30
2018-09-10T23:59:00.900Z,3.98
